createdAt,value
2019-06-15T00:02:07.703Z,98.70
2019-06-15T00:05:11.407Z,98.70
2019-06-15T00:08:15.430Z,98.50
2019-06-15T00:11:18.888Z,98.40
2019-06-15T00:14:22.448Z,98.50
2019-06-15T00:17:25.969Z,98.40
2019-06-15T00:20:29.461Z,98.70
2019-06-15T00:23:32.913Z,99.00
2019-06-15T00:26:36.463Z,99.00
2019-06-15T00:29:39.937Z,99.00
2019-06-15T00:32:43.451Z,98.90
2019-06-15T00:35:46.928Z,98.80
2019-06-15T00:38:50.413Z,98.80
2019-06-15T00:41:53.976Z,99.00
2019-06-15T00:44:57.545Z,99.20
2019-06-15T00:48:01.128Z,99.40
2019-06-15T00:51:04.957Z,99.90
2019-06-15T00:54:08.436Z,99.90
2019-06-15T00:57:11.892Z,99.60
2019-06-15T01:00:15.709Z,99.70
2019-06-15T01:03:19.188Z,99.50
2019-06-15T01:06:22.714Z,99.90
2019-06-15T01:09:26.190Z,99.80
2019-06-15T01:12:29.669Z,99.90
2019-06-15T01:15:33.146Z,99.90
2019-06-15T01:18:36.641Z,99.90
2019-06-15T01:21:40.199Z,99.90
2019-06-15T01:24:43.749Z,99.90
2019-06-15T01:27:47.217Z,99.90
2019-06-15T01:30:50.713Z,99.90
2019-06-15T01:33:54.172Z,99.90
2019-06-15T01:36:57.737Z,99.90
2019-06-15T01:40:01.190Z,99.90
2019-06-15T01:43:04.817Z,99.90
2019-06-15T01:46:08.364Z,99.90
2019-06-15T01:49:11.916Z,99.90
2019-06-15T01:52:15.369Z,99.90
2019-06-15T01:55:21.193Z,99.90
2019-06-15T01:58:24.025Z,99.90
2019-06-15T02:01:27.533Z,99.90
2019-06-15T02:04:30.987Z,99.90
2019-06-15T02:07:34.532Z,99.90
2019-06-15T02:10:38.057Z,99.90
2019-06-15T02:13:41.547Z,99.90
2019-06-15T02:16:45.070Z,99.90
2019-06-15T02:19:49.588Z,99.90
2019-06-15T02:22:53.144Z,99.90
2019-06-15T02:25:56.632Z,99.90
2019-06-15T02:29:00.091Z,99.90
2019-06-15T02:32:03.710Z,99.90
2019-06-15T02:35:07.825Z,99.90
2019-06-15T02:38:11.375Z,99.90
2019-06-15T02:41:14.900Z,99.90
2019-06-15T02:44:18.545Z,99.90
2019-06-15T02:47:22.038Z,99.90
2019-06-15T02:50:25.649Z,99.90
2019-06-15T02:53:29.208Z,99.90
2019-06-15T02:56:32.720Z,99.90
2019-06-15T02:59:36.208Z,99.90
2019-06-15T03:02:39.732Z,99.90
2019-06-15T03:05:43.286Z,99.90
2019-06-15T03:08:47.809Z,99.90
2019-06-15T03:11:51.292Z,99.90
2019-06-15T03:14:54.768Z,99.90
2019-06-15T03:17:58.272Z,99.90
2019-06-15T03:21:01.782Z,99.90
2019-06-15T03:24:05.470Z,99.90
2019-06-15T03:27:09.025Z,99.90
2019-06-15T03:30:12.622Z,99.90
2019-06-15T03:33:16.197Z,99.90
2019-06-15T03:36:19.645Z,99.90
2019-06-15T03:39:23.134Z,99.90
2019-06-15T03:42:26.691Z,99.90
2019-06-15T03:45:30.149Z,99.90
2019-06-15T03:48:33.634Z,99.90
2019-06-15T03:51:37.077Z,99.90
2019-06-15T03:54:40.564Z,99.90
2019-06-15T03:57:44.012Z,99.90
2019-06-15T04:00:49.528Z,99.90
2019-06-15T04:03:53.008Z,99.90
2019-06-15T04:06:56.505Z,99.90
2019-06-15T04:09:59.990Z,99.90
2019-06-15T04:13:03.617Z,99.90
2019-06-15T04:16:07.144Z,99.90
2019-06-15T04:19:10.612Z,99.90
2019-06-15T04:22:14.065Z,99.90
2019-06-15T04:25:17.607Z,99.90
2019-06-15T04:28:21.140Z,99.90
2019-06-15T04:31:24.733Z,99.90
2019-06-15T04:34:28.210Z,99.90
2019-06-15T04:37:31.760Z,99.90
2019-06-15T04:40:35.377Z,99.90
2019-06-15T04:43:38.959Z,99.90
2019-06-15T04:46:42.433Z,99.90
2019-06-15T04:49:45.922Z,99.90
2019-06-15T04:52:49.416Z,99.90
2019-06-15T04:55:52.872Z,99.90
2019-06-15T04:58:56.363Z,99.90
2019-06-15T05:01:59.887Z,99.90
2019-06-15T05:05:04.316Z,99.90
2019-06-15T05:08:07.880Z,99.90
2019-06-15T05:11:11.436Z,99.90
2019-06-15T05:14:14.912Z,99.90
2019-06-15T05:17:18.394Z,99.90
2019-06-15T05:20:21.878Z,99.90
2019-06-15T05:23:25.410Z,99.90
2019-06-15T05:26:28.909Z,99.90
2019-06-15T05:29:32.402Z,99.90
2019-06-15T05:32:35.856Z,99.90
2019-06-15T05:35:39.347Z,99.90
2019-06-15T05:38:42.804Z,99.90
2019-06-15T05:41:46.289Z,99.90
2019-06-15T05:44:49.778Z,99.90
2019-06-15T05:47:53.239Z,99.90
2019-06-15T05:50:58.610Z,99.90
2019-06-15T05:54:01.989Z,99.90
2019-06-15T05:57:13.211Z,99.90
2019-06-15T06:00:13.066Z,99.90
2019-06-15T06:03:16.536Z,99.90
2019-06-15T06:06:20.271Z,99.90
2019-06-15T06:09:23.850Z,99.90
2019-06-15T06:12:27.426Z,99.90
2019-06-15T06:15:31.090Z,99.90
2019-06-15T06:18:34.771Z,99.90
2019-06-15T06:21:38.297Z,99.90
2019-06-15T06:24:41.785Z,99.90
2019-06-15T06:27:45.339Z,99.90
2019-06-15T06:30:48.949Z,99.90
2019-06-15T06:33:52.615Z,97.40
2019-06-15T06:36:56.288Z,95.10
2019-06-15T06:40:00.064Z,94.40
2019-06-15T06:43:03.668Z,93.40
2019-06-15T06:46:07.393Z,92.40
2019-06-15T06:49:10.947Z,92.20
2019-06-15T06:52:14.504Z,90.60
2019-06-15T06:55:18.467Z,87.30
2019-06-15T06:58:22.214Z,84.20
2019-06-15T07:01:25.894Z,81.20
2019-06-15T07:04:29.500Z,80.00
2019-06-15T07:07:33.020Z,79.80
2019-06-15T07:10:36.601Z,78.70
2019-06-15T07:13:40.157Z,77.70
2019-06-15T07:16:43.612Z,76.70
2019-06-15T07:19:47.560Z,74.60
2019-06-15T07:22:51.032Z,73.80
2019-06-15T07:25:54.527Z,73.60
2019-06-15T07:28:58.060Z,73.50
2019-06-15T07:32:01.627Z,71.70
2019-06-15T07:35:08.433Z,71.60
2019-06-15T07:38:11.921Z,70.50
2019-06-15T07:41:16.791Z,70.20
2019-06-15T07:44:20.369Z,70.40
2019-06-15T07:47:23.866Z,70.20
2019-06-15T07:50:27.470Z,69.60
2019-06-15T07:53:30.956Z,69.40
2019-06-15T07:56:34.414Z,68.20
2019-06-15T07:59:37.897Z,68.80
2019-06-15T08:02:41.381Z,67.00
2019-06-15T08:05:44.872Z,68.00
2019-06-15T08:08:48.324Z,67.40
2019-06-15T08:11:51.822Z,69.50
2019-06-15T08:14:55.338Z,65.00
2019-06-15T08:17:58.889Z,62.90
2019-06-15T08:21:02.376Z,63.30
2019-06-15T08:24:05.937Z,63.00
2019-06-15T08:27:09.393Z,62.40
2019-06-15T08:30:15.061Z,63.70
2019-06-15T08:33:18.559Z,64.00
2019-06-15T08:36:22.114Z,63.60
2019-06-15T08:39:25.691Z,64.50
2019-06-15T08:42:29.187Z,66.80
2019-06-15T08:45:32.875Z,67.80
2019-06-15T08:48:36.428Z,67.10
2019-06-15T08:51:39.909Z,69.30
2019-06-15T08:54:43.406Z,70.70
2019-06-15T08:57:46.924Z,70.00
2019-06-15T09:00:51.232Z,69.00
2019-06-15T09:03:54.745Z,66.70
2019-06-15T09:06:58.288Z,66.90
2019-06-15T09:10:01.868Z,68.20
2019-06-15T09:13:05.463Z,70.20
2019-06-15T09:16:08.948Z,71.20
2019-06-15T09:19:12.484Z,71.50
2019-06-15T09:22:16.036Z,71.00
2019-06-15T09:25:19.530Z,70.50
2019-06-15T09:28:23.136Z,72.60
2019-06-15T09:31:27.341Z,74.30
2019-06-15T09:34:30.815Z,74.50
2019-06-15T09:37:34.350Z,75.50
2019-06-15T09:40:37.810Z,77.00
2019-06-15T09:43:41.314Z,78.70
2019-06-15T09:46:44.784Z,79.50
2019-06-15T09:49:48.545Z,81.60
2019-06-15T09:52:52.100Z,82.10
2019-06-15T09:55:55.548Z,83.50
2019-06-15T09:58:59.038Z,85.40
2019-06-15T10:02:02.517Z,86.60
2019-06-15T10:05:06.829Z,87.20
2019-06-15T10:08:10.273Z,88.30
2019-06-15T10:11:13.884Z,89.20
2019-06-15T10:14:17.471Z,90.20
2019-06-15T10:17:20.944Z,91.20
2019-06-15T10:20:24.416Z,91.60
2019-06-15T10:23:27.975Z,91.50
2019-06-15T10:26:31.562Z,91.40
2019-06-15T10:29:41.968Z,92.60
2019-06-15T10:32:40.337Z,94.00
2019-06-15T10:35:43.890Z,95.50
2019-06-15T10:38:47.416Z,96.80
2019-06-15T10:41:50.914Z,97.50
2019-06-15T10:44:54.483Z,98.10
2019-06-15T10:47:57.997Z,98.40
2019-06-15T10:51:02.485Z,99.70
2019-06-15T10:54:06.021Z,99.70
2019-06-15T10:57:09.596Z,99.80
2019-06-15T11:00:14.122Z,99.60
2019-06-15T11:03:17.567Z,98.10
2019-06-15T11:06:21.049Z,96.60
2019-06-15T11:09:24.897Z,97.00
2019-06-15T11:12:28.393Z,97.90
2019-06-15T11:15:32.681Z,97.20
2019-06-15T11:18:37.276Z,96.40
2019-06-15T11:21:40.821Z,96.20
2019-06-15T11:24:44.285Z,96.90
2019-06-15T11:27:47.770Z,98.60
2019-06-15T11:30:51.665Z,98.00
2019-06-15T11:33:56.088Z,98.30
2019-06-15T11:36:59.984Z,98.40
2019-06-15T11:40:05.503Z,98.20
2019-06-15T11:43:09.384Z,98.40
2019-06-15T11:46:12.917Z,98.70
2019-06-15T11:49:16.448Z,99.00
2019-06-15T11:52:25.697Z,99.10
2019-06-15T11:55:39.139Z,99.40
2019-06-15T11:58:34.377Z,99.40
2019-06-15T12:01:37.928Z,99.60
2019-06-15T12:04:41.413Z,99.80
2019-06-15T12:07:44.870Z,98.40
2019-06-15T12:10:48.416Z,98.20
2019-06-15T12:13:51.903Z,97.70
2019-06-15T12:16:55.390Z,97.60
2019-06-15T12:19:58.840Z,97.50
2019-06-15T12:23:02.316Z,99.40
2019-06-15T12:26:05.783Z,99.90
2019-06-15T12:29:09.308Z,99.90
2019-06-15T12:32:12.788Z,99.90
2019-06-15T12:35:16.413Z,99.90
2019-06-15T12:38:19.900Z,99.90
2019-06-15T12:41:23.430Z,99.90
2019-06-15T12:44:27.002Z,99.90
2019-06-15T12:47:30.536Z,99.90
2019-06-15T12:50:34.071Z,99.90
2019-06-15T12:53:37.571Z,99.90
2019-06-15T12:56:41.060Z,99.90
2019-06-15T12:59:44.522Z,99.90
2019-06-15T13:02:48.093Z,99.90
2019-06-15T13:05:51.622Z,99.90
2019-06-15T13:08:55.121Z,99.90
2019-06-15T13:11:58.612Z,99.90
2019-06-15T13:15:02.087Z,99.90
2019-06-15T13:18:05.699Z,99.90
2019-06-15T13:21:09.188Z,99.50
2019-06-15T13:24:12.646Z,98.70
2019-06-15T13:27:16.131Z,98.30
2019-06-15T13:30:20.926Z,97.70
2019-06-15T13:33:24.408Z,99.00
2019-06-15T13:36:27.857Z,99.90
2019-06-15T13:39:31.330Z,99.90
2019-06-15T13:42:34.811Z,99.90
2019-06-15T13:45:38.405Z,99.80
2019-06-15T13:48:42.010Z,99.00
2019-06-15T13:51:45.637Z,98.80
2019-06-15T13:54:49.192Z,98.60
2019-06-15T13:57:52.646Z,99.10
2019-06-15T14:00:56.136Z,99.90
2019-06-15T14:03:59.620Z,99.90
2019-06-15T14:07:03.086Z,99.90
2019-06-15T14:10:07.003Z,99.90
2019-06-15T14:13:10.565Z,99.90
2019-06-15T14:16:14.076Z,99.90
2019-06-15T14:19:17.610Z,99.90
2019-06-15T14:22:21.081Z,99.90
2019-06-15T14:25:24.633Z,99.90
2019-06-15T14:28:28.101Z,99.90
2019-06-15T14:31:31.586Z,99.90
2019-06-15T14:34:35.149Z,99.90
2019-06-15T14:37:38.592Z,99.90
2019-06-15T14:40:42.158Z,99.90
2019-06-15T14:43:45.613Z,99.90
2019-06-15T14:46:49.114Z,99.90
2019-06-15T14:49:52.644Z,99.90
2019-06-15T14:52:56.140Z,99.90
2019-06-15T14:55:59.685Z,99.90
2019-06-15T14:59:03.287Z,99.90
2019-06-15T15:02:13.691Z,99.90
2019-06-15T15:05:14.785Z,99.90
2019-06-15T15:08:18.365Z,99.90
2019-06-15T15:11:21.924Z,99.90
2019-06-15T15:14:26.090Z,99.90
2019-06-15T15:17:29.629Z,99.90
2019-06-15T15:20:33.113Z,99.90
2019-06-15T15:23:36.720Z,99.90
2019-06-15T15:26:40.204Z,99.90
2019-06-15T15:29:46.235Z,99.70
2019-06-15T15:32:48.871Z,99.30
2019-06-15T15:35:52.390Z,99.20
2019-06-15T15:38:56.817Z,99.60
2019-06-15T15:42:00.277Z,99.40
2019-06-15T15:45:07.147Z,99.00
2019-06-15T15:48:11.020Z,99.20
2019-06-15T15:51:16.980Z,98.90
2019-06-15T15:54:19.783Z,99.00
2019-06-15T15:57:23.273Z,99.10
2019-06-15T16:00:34.700Z,99.50
2019-06-15T16:03:38.251Z,99.60
2019-06-15T16:06:41.808Z,99.50
2019-06-15T16:09:45.256Z,99.60
2019-06-15T16:12:48.807Z,99.60
2019-06-15T16:15:55.139Z,99.00
2019-06-15T16:18:58.699Z,97.80
2019-06-15T16:22:02.196Z,98.00
2019-06-15T16:25:06.833Z,98.40
2019-06-15T16:28:10.521Z,98.10
2019-06-15T16:31:17.233Z,98.50
2019-06-15T16:34:19.181Z,98.70
2019-06-15T16:37:22.694Z,98.80
2019-06-15T16:40:38.585Z,98.70
2019-06-15T16:43:42.349Z,98.70
2019-06-15T16:46:45.839Z,98.90
2019-06-15T16:49:56.659Z,99.00
2019-06-15T16:52:59.578Z,98.80
2019-06-15T16:56:03.092Z,99.20
2019-06-15T16:59:06.871Z,99.60
2019-06-15T17:02:10.488Z,99.60
2019-06-15T17:05:16.780Z,99.90
2019-06-15T17:08:19.298Z,99.90
2019-06-15T17:11:22.811Z,99.90
2019-06-15T17:14:27.118Z,99.90
2019-06-15T17:17:30.847Z,99.90
2019-06-15T17:20:53.004Z,99.90
2019-06-15T17:23:57.258Z,99.90
2019-06-15T17:27:00.954Z,99.90
2019-06-15T19:34:43.186Z,99.90
2019-06-15T19:37:37.053Z,99.90
2019-06-15T19:40:40.066Z,99.90
2019-06-15T19:43:43.549Z,99.90
2019-06-15T19:46:47.623Z,99.90
2019-06-15T19:49:51.394Z,99.90
2019-06-15T19:52:56.556Z,99.90
2019-06-15T19:56:00.108Z,99.90
2019-06-15T19:59:03.605Z,99.90
2019-06-15T20:02:10.067Z,99.90
2019-06-15T20:05:12.665Z,99.90
2019-06-15T20:08:17.781Z,99.90
2019-06-15T20:11:21.448Z,99.90
2019-06-15T20:14:26.616Z,99.90
2019-06-15T20:17:30.493Z,99.90
2019-06-15T20:20:37.009Z,99.90
2019-06-15T20:23:39.320Z,99.90
2019-06-15T20:26:42.801Z,99.90
2019-06-15T20:29:47.507Z,99.90
2019-06-15T20:32:53.098Z,99.90
2019-06-15T20:35:57.382Z,99.90
2019-06-15T20:39:01.481Z,99.90
2019-06-15T20:42:07.696Z,99.90
2019-06-15T20:45:11.532Z,99.90
2019-06-15T20:48:15.125Z,99.90
2019-06-15T20:51:18.605Z,99.90
2019-06-15T20:54:22.105Z,99.90
2019-06-15T20:57:27.745Z,99.90
2019-06-15T21:00:32.619Z,99.90
2019-06-15T21:03:37.004Z,99.90
2019-06-15T21:06:41.653Z,99.90
2019-06-15T21:09:46.798Z,99.90
2019-06-15T21:12:50.381Z,99.90
2019-06-15T21:15:57.325Z,99.90
2019-06-15T21:19:00.808Z,99.90
2019-06-15T21:22:06.364Z,99.90
2019-06-15T21:25:10.876Z,99.90
2019-06-15T21:28:16.701Z,99.90
2019-06-15T21:31:19.552Z,99.90
2019-06-15T21:34:26.524Z,99.90
2019-06-15T21:37:30.416Z,99.90
2019-06-15T21:40:36.618Z,99.90
2019-06-15T21:43:39.126Z,99.90
2019-06-15T21:46:43.057Z,99.90
2019-06-15T21:49:46.882Z,99.90
2019-06-15T21:52:51.415Z,99.90
2019-06-15T21:55:57.147Z,99.90
2019-06-15T21:59:00.857Z,99.90
2019-06-15T22:02:07.406Z,99.90
2019-06-15T22:05:10.015Z,99.90
2019-06-15T22:08:16.915Z,99.90
2019-06-15T22:11:19.516Z,99.90
2019-06-15T22:14:23.048Z,99.90
2019-06-15T22:17:26.532Z,99.90
2019-06-15T22:20:30.054Z,99.90
2019-06-15T22:23:33.613Z,99.90
2019-06-15T22:26:37.064Z,99.90
2019-06-15T22:29:40.566Z,99.90
2019-06-15T22:32:44.042Z,99.90
2019-06-15T22:35:47.654Z,99.90
2019-06-15T22:38:51.109Z,99.90
2019-06-15T22:41:56.105Z,99.90
2019-06-15T22:44:59.749Z,99.90
2019-06-15T22:48:03.209Z,99.90
2019-06-15T22:51:06.752Z,99.90
2019-06-15T22:54:10.230Z,99.90
2019-06-15T22:57:13.729Z,99.90
2019-06-15T23:00:17.343Z,99.90
2019-06-15T23:03:20.868Z,99.90
2019-06-15T23:06:34.765Z,99.90
2019-06-15T23:09:29.536Z,99.90
2019-06-15T23:12:32.988Z,99.90
2019-06-15T23:15:37.150Z,99.90
2019-06-15T23:18:40.676Z,99.90
2019-06-15T23:21:46.220Z,99.90
2019-06-15T23:24:49.465Z,99.90
2019-06-15T23:27:52.921Z,99.90
2019-06-15T23:30:56.400Z,99.90
2019-06-15T23:33:59.944Z,99.90
2019-06-15T23:37:06.694Z,99.90
2019-06-15T23:40:18.909Z,99.90
2019-06-15T23:43:22.389Z,99.90
2019-06-15T23:46:27.138Z,99.90
2019-06-15T23:49:31.003Z,99.90
2019-06-15T23:52:36.254Z,99.90
2019-06-15T23:55:39.876Z,99.90
2019-06-15T23:58:43.410Z,99.90
